Time;durP1;ratioP1;P1;durP2;ratioP2;P2;SDS_P1;SDS_P2;PMS_P1;PMS_P2;Temp;Humidity;BMP_temperature;BMP_pressure;BME280_temperature;BME280_humidity;BME280_pressure;Samples;Min_cycle;Max_cycle;Signal;HPM_P1;HPM_P2
2023/03/06 00:01:50;;;;;;;;;41.75;39.00;;;;;;;;5053269;28;45506;-59
2023/03/06 00:04:15;;;;;;;;;46.50;39.75;;;;;;;;5053288;28;45398;-58
2023/03/06 00:06:41;;;;;;;;;53.75;42.25;;;;;;;;5052999;28;46078;-59
2023/03/06 00:09:06;;;;;;;;;48.00;41.00;;;;;;;;5053306;28;45637;-59
2023/03/06 00:11:31;;;;;;;;;42.25;39.00;;;;;;;;5053134;28;45506;-59
2023/03/06 00:13:56;;;;;;;;;45.25;37.25;;;;;;;;5053403;28;45576;-59
2023/03/06 00:16:22;;;;;;;;;44.50;39.00;;;;;;;;5053265;28;46342;-58
2023/03/06 00:18:47;;;;;;;;;41.00;38.50;;;;;;;;5052137;28;45408;-58
2023/03/06 00:21:12;;;;;;;;;49.25;40.50;;;;;;;;5052894;28;45560;-58
2023/03/06 00:23:38;;;;;;;;;43.50;39.00;;;;;;;;5053153;28;45556;-58
2023/03/06 00:26:05;;;;;;;;;42.25;38.25;;;;;;;;5053059;28;45904;-58
2023/03/06 00:28:31;;;;;;;;;39.00;36.25;;;;;;;;5052885;28;45585;-59
2023/03/06 00:30:56;;;;;;;;;34.00;31.25;;;;;;;;5052926;28;45443;-58
2023/03/06 00:33:21;;;;;;;;;40.00;35.00;;;;;;;;5052980;28;45540;-58
2023/03/06 00:35:47;;;;;;;;;39.00;36.00;;;;;;;;5052744;28;46232;-58
2023/03/06 00:38:12;;;;;;;;;40.25;38.00;;;;;;;;5052944;28;45518;-59
2023/03/06 00:40:37;;;;;;;;;41.75;36.25;;;;;;;;5052620;28;45442;-58
2023/03/06 00:43:02;;;;;;;;;39.50;35.00;;;;;;;;5053075;28;45417;-59
2023/03/06 00:45:28;;;;;;;;;39.00;35.25;;;;;;;;5052498;28;46013;-59
2023/03/06 00:47:53;;;;;;;;;39.00;35.50;;;;;;;;5052786;28;46065;-58
2023/03/06 00:50:18;;;;;;;;;34.00;30.75;;;;;;;;5053051;28;45411;-58
2023/03/06 00:52:44;;;;;;;;;35.00;34.50;;;;;;;;5052821;28;45605;-59
2023/03/06 00:55:09;;;;;;;;;42.25;35.00;;;;;;;;5052638;28;46534;-59
2023/03/06 00:57:34;;;;;;;;;29.00;28.00;;;;;;;;5052636;28;45506;-59
2023/03/06 00:59:59;;;;;;;;;39.25;37.25;;;;;;;;5052523;28;45454;-58
2023/03/06 01:02:24;;;;;;;;;34.00;30.50;;;;;;;;5052869;28;45653;-58
2023/03/06 01:04:50;;;;;;;;;30.25;28.00;;;;;;;;5052181;28;46763;-58
2023/03/06 01:07:15;;;;;;;;;29.50;28.50;;;;;;;;5052450;28;45400;-58
2023/03/06 01:09:40;;;;;;;;;41.00;35.00;;;;;;;;5052523;28;45486;-59
2023/03/06 01:12:06;;;;;;;;;35.00;33.25;;;;;;;;5034719;28;45664;-59
2023/03/06 01:14:31;;;;;;;;;40.00;31.75;;;;;;;;5053505;28;46245;-57
2023/03/06 01:16:56;;;;;;;;;32.00;29.00;;;;;;;;5055949;27;45500;-59
2023/03/06 01:19:21;;;;;;;;;41.00;35.25;;;;;;;;5063109;28;45572;-59
2023/03/06 01:21:47;;;;;;;;;35.00;30.25;;;;;;;;5063499;27;45467;-57
2023/03/06 01:24:12;;;;;;;;;39.00;34.25;;;;;;;;5067410;27;46236;-59
2023/03/06 01:26:37;;;;;;;;;36.50;30.50;;;;;;;;5072500;28;45534;-58
2023/03/06 01:29:02;;;;;;;;;41.00;33.00;;;;;;;;5072690;27;45465;-59
2023/03/06 01:31:28;;;;;;;;;47.75;40.25;;;;;;;;5060310;27;45696;-58
2023/03/06 01:33:53;;;;;;;;;41.00;36.75;;;;;;;;5075868;27;45465;-59
2023/03/06 01:36:18;;;;;;;;;38.75;35.75;;;;;;;;5075859;27;45474;-58
2023/03/06 01:38:43;;;;;;;;;44.75;37.00;;;;;;;;5076300;27;45457;-58
2023/03/06 01:41:09;;;;;;;;;43.25;36.75;;;;;;;;5057543;28;45504;-58
2023/03/06 01:43:38;;;;;;;;;38.50;35.00;;;;;;;;5075834;27;45527;-59
2023/03/06 01:46:06;;;;;;;;;38.75;35.25;;;;;;;;5075793;27;45482;-59
2023/03/06 01:48:31;;;;;;;;;36.50;31.50;;;;;;;;5061254;27;45675;-59
2023/03/06 01:50:56;;;;;;;;;35.00;32.00;;;;;;;;5075810;27;45475;-58
2023/03/06 01:53:22;;;;;;;;;29.75;27.25;;;;;;;;5057286;27;46078;-59
2023/03/06 01:55:47;;;;;;;;;35.25;28.75;;;;;;;;5075792;27;45447;-59
2023/03/06 01:58:15;;;;;;;;;32.00;32.00;;;;;;;;5075536;27;45565;-59
2023/03/06 02:00:40;;;;;;;;;30.00;26.00;;;;;;;;5075772;27;45548;-58
2023/03/06 02:03:08;;;;;;;;;31.25;30.00;;;;;;;;5075472;27;45599;-59
2023/03/06 02:05:33;;;;;;;;;26.50;24.00;;;;;;;;5075266;27;45559;-59
2023/03/06 02:07:59;;;;;;;;;29.25;26.25;;;;;;;;5075682;27;45401;-59
2023/03/06 02:10:25;;;;;;;;;35.25;31.00;;;;;;;;5075401;27;45599;-59
2023/03/06 02:12:50;;;;;;;;;36.75;27.50;;;;;;;;5075361;27;45549;-59
2023/03/06 02:15:17;;;;;;;;;34.25;29.50;;;;;;;;5075553;27;46046;-58
2023/03/06 02:17:44;;;;;;;;;38.50;29.75;;;;;;;;5075624;27;45418;-58
2023/03/06 02:20:12;;;;;;;;;32.00;29.75;;;;;;;;5075087;27;45680;-58
2023/03/06 02:22:55;;;;;;;;;38.25;32.50;;;;;;;;5060508;27;45478;-59
2023/03/06 02:25:29;;;;;;;;;31.25;28.25;;;;;;;;5075224;27;45518;-58
2023/03/06 02:27:55;;;;;;;;;34.00;31.50;;;;;;;;5075277;27;45489;-58
2023/03/06 02:30:20;;;;;;;;;38.50;34.25;;;;;;;;5074878;27;45489;-59
2023/03/06 02:32:46;;;;;;;;;41.00;35.50;;;;;;;;5074946;27;45577;-60
2023/03/06 02:35:18;;;;;;;;;42.00;34.00;;;;;;;;5075298;28;45489;-59
2023/03/06 02:37:43;;;;;;;;;41.75;33.00;;;;;;;;5075027;27;45487;-59
2023/03/06 02:40:11;;;;;;;;;32.75;32.75;;;;;;;;5074964;28;45672;-59
2023/03/06 02:42:36;;;;;;;;;30.75;28.25;;;;;;;;5055820;27;45936;-58
2023/03/06 02:45:02;;;;;;;;;40.75;35.75;;;;;;;;5074718;27;45528;-59
2023/03/06 02:47:27;;;;;;;;;33.00;31.75;;;;;;;;5075201;27;45517;-58
2023/03/06 02:49:53;;;;;;;;;34.25;29.75;;;;;;;;5074691;27;45610;-59
2023/03/06 02:52:18;;;;;;;;;36.25;32.75;;;;;;;;5056296;28;47960;-59
2023/03/06 02:54:43;;;;;;;;;33.50;32.50;;;;;;;;5074704;27;45478;-59
2023/03/06 02:57:09;;;;;;;;;32.75;28.75;;;;;;;;5074945;27;45554;-59
2023/03/06 02:59:34;;;;;;;;;36.75;32.25;;;;;;;;5074583;27;45488;-58
2023/03/06 03:01:59;;;;;;;;;36.25;31.25;;;;;;;;5074467;27;46076;-57
2023/03/06 03:04:24;;;;;;;;;47.75;35.50;;;;;;;;5074633;27;45543;-59
2023/03/06 03:06:50;;;;;;;;;33.25;32.00;;;;;;;;5074679;27;45477;-58
2023/03/06 03:09:15;;;;;;;;;36.25;35.50;;;;;;;;5074818;28;45450;-58
2023/03/06 03:11:40;;;;;;;;;32.75;28.50;;;;;;;;5056172;28;47989;-58
2023/03/06 03:14:05;;;;;;;;;27.75;27.75;;;;;;;;5074509;28;45488;-58
2023/03/06 03:16:31;;;;;;;;;27.50;25.25;;;;;;;;5056322;27;45486;-58
2023/03/06 03:18:56;;;;;;;;;31.00;27.50;;;;;;;;5074498;27;45518;-59
2023/03/06 03:21:21;;;;;;;;;31.25;27.75;;;;;;;;5066088;27;45564;-58
2023/03/06 03:23:46;;;;;;;;;35.50;27.75;;;;;;;;5068159;27;45544;-58
2023/03/06 03:26:13;;;;;;;;;30.00;29.00;;;;;;;;5074364;27;45509;-58
2023/03/06 03:28:39;;;;;;;;;30.50;27.00;;;;;;;;5074199;27;45516;-58
2023/03/06 03:31:05;;;;;;;;;36.25;29.50;;;;;;;;5073789;27;45645;-57
2023/03/06 03:33:30;;;;;;;;;34.75;31.00;;;;;;;;5055401;28;45466;-59
2023/03/06 03:35:56;;;;;;;;;31.25;26.75;;;;;;;;5074158;27;45517;-58
2023/03/06 03:38:21;;;;;;;;;40.25;34.50;;;;;;;;5074273;27;45391;-58
2023/03/06 03:40:47;;;;;;;;;29.75;28.75;;;;;;;;5073864;27;45599;-58
2023/03/06 03:43:12;;;;;;;;;33.50;33.25;;;;;;;;5073767;27;45666;-59
2023/03/06 03:45:39;;;;;;;;;42.75;34.75;;;;;;;;5074060;27;45534;-59
2023/03/06 03:48:04;;;;;;;;;46.75;38.75;;;;;;;;5073762;27;45528;-58
2023/03/06 03:50:29;;;;;;;;;32.25;30.75;;;;;;;;5073736;27;45393;-58
2023/03/06 03:52:54;;;;;;;;;34.50;34.50;;;;;;;;5054948;28;45560;-59
2023/03/06 03:55:19;;;;;;;;;39.25;30.00;;;;;;;;5074060;27;45461;-59
2023/03/06 03:57:45;;;;;;;;;42.00;38.00;;;;;;;;5074003;27;45625;-58
2023/03/06 04:00:14;;;;;;;;;42.75;37.25;;;;;;;;5073373;27;46012;-59
2023/03/06 04:02:40;;;;;;;;;35.00;32.75;;;;;;;;5073763;27;45402;-59
2023/03/06 04:05:05;;;;;;;;;44.00;37.00;;;;;;;;5073668;27;45461;-58
2023/03/06 04:07:31;;;;;;;;;39.25;36.75;;;;;;;;5055907;27;45613;-59
2023/03/06 04:09:56;;;;;;;;;41.00;34.50;;;;;;;;5073316;27;46001;-59
2023/03/06 04:12:21;;;;;;;;;39.25;33.25;;;;;;;;5073748;27;45355;-58
2023/03/06 04:14:46;;;;;;;;;42.75;36.75;;;;;;;;5073845;27;45461;-59
2023/03/06 04:17:11;;;;;;;;;42.25;38.00;;;;;;;;5073550;27;45621;-58
2023/03/06 04:19:36;;;;;;;;;39.75;36.75;;;;;;;;5073315;27;46098;-59
2023/03/06 04:22:02;;;;;;;;;43.25;38.50;;;;;;;;5059714;28;45524;-59
2023/03/06 04:24:27;;;;;;;;;42.00;33.00;;;;;;;;5072930;27;45604;-58
2023/03/06 04:26:52;;;;;;;;;41.75;37.00;;;;;;;;5073561;27;45387;-58
2023/03/06 04:29:17;;;;;;;;;38.25;34.50;;;;;;;;5073061;27;45587;-58
2023/03/06 04:31:42;;;;;;;;;38.75;36.50;;;;;;;;5073408;27;45482;-59
2023/03/06 04:34:07;;;;;;;;;42.00;34.75;;;;;;;;5073251;27;45469;-60
2023/03/06 04:36:33;;;;;;;;;20.75;17.00;;;;;;;;5073481;27;45511;-58
2023/03/06 04:38:58;;;;;;;;;33.75;31.75;;;;;;;;5073202;28;45909;-58
2023/03/06 04:41:24;;;;;;;;;29.00;29.00;;;;;;;;5072982;28;45500;-58
2023/03/06 04:43:49;;;;;;;;;38.25;36.50;;;;;;;;5073086;27;45432;-59
2023/03/06 04:46:14;;;;;;;;;42.75;37.00;;;;;;;;5073202;27;45600;-59
2023/03/06 04:48:39;;;;;;;;;38.25;30.25;;;;;;;;5072981;28;46422;-58
2023/03/06 04:51:05;;;;;;;;;33.25;30.75;;;;;;;;5072758;27;45493;-59
2023/03/06 04:53:31;;;;;;;;;42.50;36.75;;;;;;;;5073256;27;45473;-59
2023/03/06 04:55:56;;;;;;;;;38.75;32.75;;;;;;;;5055154;28;45543;-58
2023/03/06 04:58:21;;;;;;;;;40.75;36.75;;;;;;;;5072684;27;45559;-59
2023/03/06 05:00:47;;;;;;;;;43.00;36.75;;;;;;;;5054766;28;45466;-58
2023/03/06 05:03:13;;;;;;;;;36.25;34.00;;;;;;;;5072933;28;45490;-58
2023/03/06 05:05:38;;;;;;;;;36.75;31.25;;;;;;;;5074025;27;45455;-59
2023/03/06 05:08:03;;;;;;;;;36.50;33.25;;;;;;;;5061985;28;46217;-58
2023/03/06 05:10:29;;;;;;;;;37.75;34.50;;;;;;;;5076391;27;45447;-58
2023/03/06 05:12:54;;;;;;;;;34.25;29.75;;;;;;;;5076528;27;45586;-59
2023/03/06 05:15:19;;;;;;;;;36.50;33.75;;;;;;;;5076284;27;45609;-58
2023/03/06 05:17:46;;;;;;;;;41.75;35.75;;;;;;;;5076222;27;45521;-58
2023/03/06 05:20:11;;;;;;;;;41.25;37.00;;;;;;;;5076020;27;45485;-58
2023/03/06 05:22:37;;;;;;;;;44.75;34.75;;;;;;;;5062092;28;45490;-59
2023/03/06 05:25:03;;;;;;;;;37.25;32.00;;;;;;;;5076335;27;45753;-58
2023/03/06 05:27:28;;;;;;;;;42.75;36.75;;;;;;;;5075951;27;46136;-58
2023/03/06 05:29:54;;;;;;;;;34.50;31.00;;;;;;;;5075923;27;45463;-61
2023/03/06 05:32:20;;;;;;;;;39.75;36.00;;;;;;;;5076153;27;45423;-59
2023/03/06 05:34:45;;;;;;;;;33.50;30.00;;;;;;;;5076337;27;45557;-59
2023/03/06 05:37:10;;;;;;;;;41.00;36.00;;;;;;;;5076012;27;45545;-58
2023/03/06 05:39:35;;;;;;;;;36.00;32.75;;;;;;;;5057286;27;45680;-58
2023/03/06 05:42:01;;;;;;;;;35.50;32.00;;;;;;;;5076328;27;45511;-59
2023/03/06 05:44:33;;;;;;;;;43.25;38.75;;;;;;;;5075874;27;45580;-59
2023/03/06 05:46:58;;;;;;;;;37.25;33.75;;;;;;;;5075796;27;45381;-59
2023/03/06 05:49:23;;;;;;;;;39.00;36.00;;;;;;;;5075546;27;45472;-59
2023/03/06 05:51:49;;;;;;;;;34.75;32.00;;;;;;;;5075725;27;45476;-58
2023/03/06 05:54:14;;;;;;;;;32.25;29.50;;;;;;;;5075785;27;45557;-58
2023/03/06 05:56:39;;;;;;;;;37.75;34.00;;;;;;;;5046961;27;45974;-59
2023/03/06 05:59:04;;;;;;;;;29.75;28.00;;;;;;;;5075496;27;45486;-59
2023/03/06 06:01:30;;;;;;;;;34.75;29.50;;;;;;;;5075707;27;45553;-57
2023/03/06 06:03:55;;;;;;;;;28.50;28.25;;;;;;;;5075717;27;45632;-57
2023/03/06 06:06:20;;;;;;;;;31.00;27.25;;;;;;;;5075402;27;45605;-58
2023/03/06 06:08:45;;;;;;;;;34.25;27.50;;;;;;;;5075583;27;45579;-57
2023/03/06 06:11:11;;;;;;;;;39.25;31.50;;;;;;;;5057298;27;45518;-58
2023/03/06 06:13:37;;;;;;;;;40.00;30.00;;;;;;;;5075403;27;45573;-59
2023/03/06 06:16:14;;;;;;;;;34.00;29.00;;;;;;;;5075102;27;45480;-58
2023/03/06 06:18:39;;;;;;;;;30.00;25.00;;;;;;;;5074269;28;45502;-57
2023/03/06 06:21:06;;;;;;;;;29.00;28.00;;;;;;;;5069429;27;45587;-59
2023/03/06 06:23:31;;;;;;;;;34.75;32.00;;;;;;;;5066721;27;45653;-58
2023/03/06 06:25:58;;;;;;;;;31.75;28.50;;;;;;;;5074775;27;46042;-58
2023/03/06 06:28:23;;;;;;;;;32.50;27.75;;;;;;;;5075289;27;45425;-58
2023/03/06 06:30:48;;;;;;;;;34.00;28.25;;;;;;;;5056626;28;45406;-58
2023/03/06 06:33:13;;;;;;;;;29.00;27.50;;;;;;;;5075342;27;45550;-58
2023/03/06 06:35:39;;;;;;;;;37.25;32.50;;;;;;;;5075078;27;46191;-60
2023/03/06 06:38:04;;;;;;;;;34.75;29.25;;;;;;;;5074985;27;45633;-60
2023/03/06 06:40:29;;;;;;;;;33.25;28.00;;;;;;;;5075148;27;45638;-59
2023/03/06 06:42:54;;;;;;;;;33.50;32.50;;;;;;;;5075050;28;45561;-57
2023/03/06 06:45:19;;;;;;;;;36.25;30.00;;;;;;;;5074945;27;45522;-58
2023/03/06 06:47:47;;;;;;;;;27.50;24.50;;;;;;;;5074694;27;45569;-58
2023/03/06 06:50:13;;;;;;;;;36.25;33.00;;;;;;;;5074756;27;45524;-57
2023/03/06 06:52:38;;;;;;;;;31.50;28.25;;;;;;;;5074547;27;45505;-59
2023/03/06 06:55:04;;;;;;;;;32.75;29.00;;;;;;;;5074583;27;46224;-58
2023/03/06 06:57:29;;;;;;;;;33.00;31.50;;;;;;;;5074402;27;45465;-58
2023/03/06 06:59:54;;;;;;;;;30.75;29.00;;;;;;;;5074504;27;45433;-58
2023/03/06 07:02:19;;;;;;;;;32.50;29.25;;;;;;;;5074703;27;45497;-57
2023/03/06 07:04:44;;;;;;;;;36.00;30.50;;;;;;;;5074305;27;45536;-59
2023/03/06 07:07:10;;;;;;;;;29.25;25.00;;;;;;;;5074571;27;45601;-58
2023/03/06 07:09:37;;;;;;;;;31.25;31.25;;;;;;;;5074681;27;45648;-58
2023/03/06 07:12:02;;;;;;;;;32.75;28.50;;;;;;;;5074497;27;45429;-59
2023/03/06 07:14:27;;;;;;;;;31.00;31.00;;;;;;;;5074264;27;45498;-59
2023/03/06 07:16:52;;;;;;;;;34.75;29.75;;;;;;;;5074144;27;45572;-59
2023/03/06 07:19:17;;;;;;;;;33.00;29.75;;;;;;;;5056275;27;45534;-58
2023/03/06 07:21:43;;;;;;;;;32.25;30.75;;;;;;;;5063293;27;45497;-57
2023/03/06 07:24:08;;;;;;;;;35.00;33.00;;;;;;;;5070605;27;45412;-59
2023/03/06 07:26:33;;;;;;;;;39.00;30.75;;;;;;;;5074142;27;45476;-58
2023/03/06 07:28:58;;;;;;;;;34.00;30.00;;;;;;;;5073395;27;45466;-58
2023/03/06 07:31:25;;;;;;;;;24.00;24.00;;;;;;;;5074202;27;45490;-59
2023/03/06 07:33:51;;;;;;;;;30.50;27.75;;;;;;;;5073991;27;45501;-59
2023/03/06 07:36:16;;;;;;;;;28.50;27.50;;;;;;;;5055439;28;45573;-60
2023/03/06 07:38:42;;;;;;;;;32.00;30.00;;;;;;;;5074046;27;45447;-58
2023/03/06 07:41:12;;;;;;;;;28.75;26.00;;;;;;;;5073604;27;45522;-62
2023/03/06 07:43:37;;;;;;;;;34.50;27.50;;;;;;;;5073560;27;46159;-59
2023/03/06 07:46:02;;;;;;;;;24.50;22.50;;;;;;;;5073554;27;45504;-59
2023/03/06 07:48:27;;;;;;;;;31.50;27.00;;;;;;;;5073702;27;45596;-59
2023/03/06 07:50:57;;;;;;;;;35.50;29.50;;;;;;;;5073636;27;45589;-59
2023/03/06 07:53:24;;;;;;;;;28.00;27.50;;;;;;;;5073457;27;46222;-59
2023/03/06 07:55:50;;;;;;;;;28.75;27.75;;;;;;;;5073923;27;45494;-58
2023/03/06 07:58:15;;;;;;;;;28.00;26.25;;;;;;;;5073382;27;45433;-59
2023/03/06 08:00:40;;;;;;;;;31.00;30.50;;;;;;;;5073618;27;45637;-59
2023/03/06 08:03:05;;;;;;;;;27.25;27.25;;;;;;;;5072965;27;45416;-59
2023/03/06 08:05:31;;;;;;;;;27.75;27.00;;;;;;;;5073704;27;45553;-58
2023/03/06 08:07:56;;;;;;;;;28.00;24.00;;;;;;;;5073597;27;45479;-59
2023/03/06 08:10:21;;;;;;;;;30.75;25.00;;;;;;;;5073420;27;45668;-59
2023/03/06 08:12:47;;;;;;;;;33.00;28.25;;;;;;;;5073164;27;46077;-58
2023/03/06 08:15:12;;;;;;;;;27.25;26.75;;;;;;;;5073094;27;45493;-57
2023/03/06 08:17:37;;;;;;;;;27.75;24.00;;;;;;;;5073568;27;45422;-58
2023/03/06 08:20:03;;;;;;;;;28.00;23.00;;;;;;;;5073210;28;45622;-58
2023/03/06 08:22:28;;;;;;;;;30.75;26.25;;;;;;;;5058643;27;45744;-58
2023/03/06 08:24:54;;;;;;;;;25.25;24.50;;;;;;;;5073192;27;45431;-58
2023/03/06 08:27:19;;;;;;;;;33.50;32.25;;;;;;;;5073148;27;45458;-57
2023/03/06 08:29:44;;;;;;;;;28.00;26.50;;;;;;;;5072780;27;45647;-58
2023/03/06 08:32:10;;;;;;;;;29.50;24.75;;;;;;;;5072974;27;45519;-58
2023/03/06 08:34:38;;;;;;;;;32.00;27.25;;;;;;;;5072754;27;45481;-58
2023/03/06 08:37:03;;;;;;;;;32.25;27.75;;;;;;;;5073181;27;45529;-58
2023/03/06 08:39:29;;;;;;;;;26.00;24.75;;;;;;;;5053922;28;45511;-59
2023/03/06 08:41:54;;;;;;;;;32.50;25.00;;;;;;;;5072229;27;45521;-58
2023/03/06 08:44:19;;;;;;;;;28.50;27.75;;;;;;;;5072610;27;45455;-58
2023/03/06 08:46:44;;;;;;;;;25.50;22.50;;;;;;;;5073103;27;45368;-59
2023/03/06 08:49:11;;;;;;;;;28.50;28.50;;;;;;;;5073056;27;45467;-58
2023/03/06 08:51:36;;;;;;;;;31.75;28.25;;;;;;;;5072523;27;45540;-58
2023/03/06 08:54:01;;;;;;;;;27.50;26.50;;;;;;;;5072808;27;45436;-56
2023/03/06 08:56:31;;;;;;;;;34.00;29.25;;;;;;;;5072775;27;45424;-58
2023/03/06 08:58:57;;;;;;;;;29.50;27.25;;;;;;;;5072842;27;45464;-57
2023/03/06 09:01:24;;;;;;;;;22.75;21.00;;;;;;;;5072140;28;46341;-58
2023/03/06 09:03:49;;;;;;;;;31.75;27.25;;;;;;;;5071471;27;45569;-58
2023/03/06 09:06:15;;;;;;;;;26.25;24.25;;;;;;;;5072336;27;45474;-59
2023/03/06 09:08:41;;;;;;;;;32.75;30.25;;;;;;;;5072487;27;45423;-57
2023/03/06 09:11:07;;;;;;;;;30.00;29.25;;;;;;;;5072728;27;45700;-58
2023/03/06 09:13:32;;;;;;;;;29.00;24.00;;;;;;;;5072444;27;45524;-58
2023/03/06 09:15:58;;;;;;;;;31.50;28.25;;;;;;;;5072669;27;45744;-58
2023/03/06 09:18:23;;;;;;;;;30.50;25.25;;;;;;;;5072444;27;45438;-57
2023/03/06 09:20:48;;;;;;;;;29.00;25.75;;;;;;;;5068756;27;45462;-56
2023/03/06 09:23:13;;;;;;;;;27.25;26.50;;;;;;;;5061544;28;45364;-57
2023/03/06 09:25:39;;;;;;;;;32.75;32.00;;;;;;;;5072443;27;45435;-57
2023/03/06 09:28:04;;;;;;;;;34.25;27.75;;;;;;;;5072461;27;45609;-56
2023/03/06 09:30:29;;;;;;;;;30.50;26.50;;;;;;;;5072039;27;45496;-58
2023/03/06 09:32:55;;;;;;;;;29.50;26.75;;;;;;;;5072299;27;46123;-58
2023/03/06 09:35:20;;;;;;;;;30.00;28.50;;;;;;;;5072495;27;45564;-58
2023/03/06 09:37:45;;;;;;;;;31.00;29.50;;;;;;;;5072305;27;45676;-58
2023/03/06 09:40:16;;;;;;;;;29.75;27.00;;;;;;;;5072122;27;45478;-58
2023/03/06 09:42:41;;;;;;;;;27.25;24.75;;;;;;;;5072494;27;45498;-58
2023/03/06 09:45:09;;;;;;;;;28.50;24.00;;;;;;;;5072252;27;45598;-58
2023/03/06 09:47:53;;;;;;;;;27.25;25.25;;;;;;;;5071823;27;45604;-58
2023/03/06 09:50:21;;;;;;;;;30.25;29.50;;;;;;;;5048180;27;45543;-58
2023/03/06 09:53:02;;;;;;;;;31.75;27.25;;;;;;;;5074613;27;45497;-58
2023/03/06 09:55:29;;;;;;;;;36.00;32.50;;;;;;;;5075676;27;45520;-58
2023/03/06 09:57:55;;;;;;;;;32.25;31.25;;;;;;;;5075299;27;45505;-58
2023/03/06 10:00:40;;;;;;;;;38.25;30.25;;;;;;;;5075371;27;46097;-59
2023/03/06 10:03:21;;;;;;;;;33.50;31.75;;;;;;;;5075308;27;45568;-59
2023/03/06 10:05:53;;;;;;;;;34.25;27.25;;;;;;;;5075532;27;45586;-58
2023/03/06 10:08:19;;;;;;;;;28.00;25.50;;;;;;;;5075390;27;45655;-58
2023/03/06 10:10:50;;;;;;;;;32.75;27.00;;;;;;;;5075393;27;45573;-59
2023/03/06 10:13:23;;;;;;;;;33.00;30.50;;;;;;;;5075129;27;45470;-59
2023/03/06 10:15:49;;;;;;;;;29.50;28.75;;;;;;;;5075270;27;45443;-58
2023/03/06 10:18:14;;;;;;;;;25.75;25.75;;;;;;;;5075049;27;45549;-59
2023/03/06 10:20:47;;;;;;;;;31.75;30.75;;;;;;;;5054517;28;47292;-58
2023/03/06 10:23:23;;;;;;;;;35.50;31.50;;;;;;;;5064339;27;45446;-58
2023/03/06 10:25:59;;;;;;;;;29.75;27.25;;;;;;;;5074919;27;45581;-59
2023/03/06 10:28:40;;;;;;;;;26.75;26.50;;;;;;;;5075085;27;45462;-59
2023/03/06 10:31:10;;;;;;;;;29.00;29.00;;;;;;;;5074419;27;46684;-59
2023/03/06 10:33:45;;;;;;;;;27.50;27.50;;;;;;;;5075001;27;45515;-58
2023/03/06 10:36:13;;;;;;;;;28.50;23.00;;;;;;;;5074869;27;45563;-59
2023/03/06 10:38:40;;;;;;;;;25.50;23.00;;;;;;;;5075070;28;45557;-58
2023/03/06 10:41:11;;;;;;;;;22.75;22.25;;;;;;;;5074678;27;45640;-58
2023/03/06 10:43:43;;;;;;;;;27.50;27.50;;;;;;;;5074985;27;45505;-58
2023/03/06 10:46:09;;;;;;;;;25.00;24.75;;;;;;;;5074971;27;45570;-60
2023/03/06 10:48:35;;;;;;;;;29.50;26.50;;;;;;;;5074889;27;45530;-59
2023/03/06 10:51:20;;;;;;;;;28.50;25.50;;;;;;;;5074434;27;45411;-59
2023/03/06 10:53:49;;;;;;;;;30.25;24.00;;;;;;;;5051932;27;45416;-59
2023/03/06 10:56:24;;;;;;;;;24.50;24.50;;;;;;;;5074566;27;45482;-59
2023/03/06 10:59:03;;;;;;;;;20.75;17.75;;;;;;;;5074437;28;45447;-59
2023/03/06 11:01:29;;;;;;;;;22.75;20.50;;;;;;;;5073671;27;45585;-58
2023/03/06 11:04:12;;;;;;;;;24.25;21.25;;;;;;;;5073030;27;45486;-60
2023/03/06 11:06:38;;;;;;;;;23.25;20.50;;;;;;;;5074137;27;45499;-58
2023/03/06 11:09:33;;;;;;;;;29.00;27.75;;;;;;;;5056035;28;45495;-60
2023/03/06 11:12:16;;;;;;;;;27.75;23.25;;;;;;;;5059901;27;46123;-57
2023/03/06 11:14:42;;;;;;;;;19.75;19.25;;;;;;;;5074038;27;45450;-59
2023/03/06 11:17:24;;;;;;;;;23.00;19.25;;;;;;;;5073968;27;45618;-60
2023/03/06 11:19:50;;;;;;;;;32.50;27.25;;;;;;;;5074272;27;45474;-60
2023/03/06 11:22:16;;;;;;;;;29.00;24.50;;;;;;;;5059136;28;45627;-59
2023/03/06 11:24:46;;;;;;;;;23.25;20.50;;;;;;;;5073900;27;45439;-59
2023/03/06 11:27:14;;;;;;;;;14.00;14.00;;;;;;;;5056281;28;45509;-58
2023/03/06 11:29:42;;;;;;;;;19.75;17.75;;;;;;;;5045591;28;45598;-59
2023/03/06 11:32:16;;;;;;;;;22.00;16.25;;;;;;;;5073770;28;45410;-58
2023/03/06 11:34:42;;;;;;;;;16.25;15.75;;;;;;;;5073505;27;45426;-59
2023/03/06 11:37:12;;;;;;;;;20.00;18.50;;;;;;;;5073633;27;45495;-58
2023/03/06 11:39:48;;;;;;;;;23.00;19.00;;;;;;;;5073627;27;45498;-59
2023/03/06 11:42:20;;;;;;;;;18.75;18.00;;;;;;;;5073791;27;46188;-59
2023/03/06 11:45:04;;;;;;;;;22.50;19.75;;;;;;;;5073611;27;45614;-61
2023/03/06 11:47:49;;;;;;;;;24.50;19.75;;;;;;;;5073429;27;45525;-57
2023/03/06 11:50:21;;;;;;;;;22.75;22.50;;;;;;;;5044415;27;45691;-60
2023/03/06 11:52:50;;;;;;;;;30.00;25.50;;;;;;;;5072952;27;46507;-58
2023/03/06 11:55:19;;;;;;;;;20.50;18.50;;;;;;;;5073553;27;45435;-58
2023/03/06 11:57:53;;;;;;;;;22.00;19.25;;;;;;;;5073589;27;45496;-59
2023/03/06 12:00:45;;;;;;;;;21.25;18.75;;;;;;;;5073320;27;45626;-57
2023/03/06 12:03:20;;;;;;;;;18.50;17.25;;;;;;;;5069941;27;45783;-58
2023/03/06 12:05:49;;;;;;;;;22.75;18.25;;;;;;;;5073476;27;45593;-58
2023/03/06 12:08:23;;;;;;;;;22.00;18.00;;;;;;;;5073148;27;45495;-59
2023/03/06 12:10:55;;;;;;;;;23.50;19.75;;;;;;;;5073138;27;45556;-58
2023/03/06 12:13:33;;;;;;;;;22.25;17.75;;;;;;;;5073117;27;45504;-61
2023/03/06 12:16:04;;;;;;;;;22.75;19.75;;;;;;;;5073167;27;45575;-58
2023/03/06 12:18:31;;;;;;;;;18.25;18.25;;;;;;;;5073022;27;45514;-58
2023/03/06 12:21:09;;;;;;;;;20.50;19.50;;;;;;;;5068187;27;45499;-58
2023/03/06 12:23:40;;;;;;;;;18.75;17.75;;;;;;;;5064627;27;46142;-58
2023/03/06 12:26:17;;;;;;;;;19.50;17.25;;;;;;;;5072893;27;45512;-59
2023/03/06 12:29:00;;;;;;;;;24.00;20.75;;;;;;;;5073194;27;45502;-58
2023/03/06 12:31:38;;;;;;;;;20.50;18.25;;;;;;;;5046614;28;45455;-59
2023/03/06 12:34:10;;;;;;;;;15.25;15.25;;;;;;;;5072884;27;46156;-59
2023/03/06 12:36:38;;;;;;;;;23.75;22.00;;;;;;;;5072921;27;45517;-58
2023/03/06 12:39:07;;;;;;;;;21.00;19.50;;;;;;;;5072905;27;45633;-58
2023/03/06 12:41:38;;;;;;;;;26.25;24.75;;;;;;;;5072949;27;45442;-58
2023/03/06 12:44:16;;;;;;;;;22.25;21.50;;;;;;;;5054685;28;47321;-57
2023/03/06 12:46:48;;;;;;;;;22.00;20.00;;;;;;;;5072526;27;45557;-58
2023/03/06 12:49:20;;;;;;;;;19.75;19.75;;;;;;;;5072937;27;45495;-58
2023/03/06 12:51:46;;;;;;;;;21.50;21.00;;;;;;;;5072656;27;45525;-58
2023/03/06 12:54:12;;;;;;;;;24.50;24.00;;;;;;;;5072687;28;45451;-58
2023/03/06 12:56:38;;;;;;;;;27.25;25.00;;;;;;;;5072801;28;45584;-58
2023/03/06 12:59:04;;;;;;;;;20.25;19.50;;;;;;;;5072768;27;45545;-58
2023/03/06 13:01:49;;;;;;;;;19.75;18.25;;;;;;;;5072529;28;45557;-59
2023/03/06 13:04:35;;;;;;;;;24.25;20.75;;;;;;;;5072341;27;45484;-59
2023/03/06 13:07:36;;;;;;;;;24.00;22.50;;;;;;;;5071846;27;45580;-60
2023/03/06 13:10:01;;;;;;;;;26.25;20.50;;;;;;;;5009836;28;45620;-59
2023/03/06 13:12:29;;;;;;;;;26.25;23.75;;;;;;;;5059207;28;45501;-59
2023/03/06 13:14:55;;;;;;;;;21.50;21.50;;;;;;;;5072358;28;46372;-59
2023/03/06 13:17:34;;;;;;;;;21.75;19.25;;;;;;;;5072487;27;45519;-60
2023/03/06 13:20:12;;;;;;;;;24.50;23.25;;;;;;;;5072302;27;45492;-59
2023/03/06 13:22:37;;;;;;;;;22.75;20.25;;;;;;;;5058212;27;45487;-59
2023/03/06 13:25:18;;;;;;;;;23.00;18.50;;;;;;;;5072534;27;46599;-59
2023/03/06 13:27:52;;;;;;;;;24.00;18.50;;;;;;;;5075289;27;45579;-60
2023/03/06 13:30:35;;;;;;;;;19.50;18.50;;;;;;;;5075712;27;45613;-59
2023/03/06 13:33:00;;;;;;;;;23.00;19.00;;;;;;;;5075566;27;45482;-57
2023/03/06 13:35:29;;;;;;;;;20.50;20.25;;;;;;;;5075477;27;46131;-59
2023/03/06 13:37:54;;;;;;;;;28.25;25.25;;;;;;;;5075552;27;45505;-59
2023/03/06 13:40:24;;;;;;;;;24.75;23.50;;;;;;;;5075643;27;45557;-59
2023/03/06 13:43:01;;;;;;;;;25.50;23.25;;;;;;;;5075949;27;45677;-59
2023/03/06 13:45:37;;;;;;;;;22.00;18.00;;;;;;;;5075536;27;45452;-58
2023/03/06 13:48:03;;;;;;;;;26.25;21.50;;;;;;;;5075510;27;45459;-58
2023/03/06 13:50:39;;;;;;;;;22.75;19.50;;;;;;;;5075582;27;45592;-57
2023/03/06 13:53:11;;;;;;;;;22.75;22.50;;;;;;;;5075501;27;45484;-58
2023/03/06 13:56:00;;;;;;;;;28.25;22.75;;;;;;;;5075422;27;46286;-58
2023/03/06 13:58:51;;;;;;;;;28.75;25.75;;;;;;;;5075514;28;45494;-58
2023/03/06 14:01:35;;;;;;;;;26.25;25.50;;;;;;;;5075361;27;45671;-58
2023/03/06 14:04:00;;;;;;;;;17.75;17.75;;;;;;;;5075629;27;45687;-59
2023/03/06 14:06:34;;;;;;;;;23.00;20.75;;;;;;;;5074913;27;46101;-59
2023/03/06 14:09:04;;;;;;;;;22.75;20.75;;;;;;;;5075327;27;45515;-58
2023/03/06 14:11:30;;;;;;;;;17.75;17.00;;;;;;;;5075451;27;45379;-58
2023/03/06 14:13:55;;;;;;;;;22.75;21.00;;;;;;;;5075587;27;45517;-59
2023/03/06 14:16:25;;;;;;;;;24.50;19.25;;;;;;;;5075060;27;45933;-59
2023/03/06 14:18:53;;;;;;;;;21.50;20.75;;;;;;;;5074912;27;45512;-58
2023/03/06 14:21:29;;;;;;;;;19.25;18.50;;;;;;;;5067461;27;45511;-59